Reid, Mississippi
Current Conditions -  °F | °C
As of 9:53 PM on Tuesday 25 Nov 2014 (Local Time) from KTUP Reporting Station
Clear Clear  
Wind Chill: 36°   Ceiling: Unl
Heat Index: 39°   Visibility: 10mi
Dew Point: 25°   Wind: 5mph
Humidity: 57%   Direction: 340°NNW
Pressure: 30.19"   Gusts: NA
Location:  33.9472°N, 89.1968°W
Report Text: KTUP 260353Z 34004KT 10SM CLR 04/M04 A3019 RMK AO2 SLP224 T00391039
Loading
Personal Weather Stations






























Interactive Weather Map New forecast layout! Learn more

10-Day Weather Forecast

Advertisements
Track Severe Weather on mobile